WetterOnline ( https://www.wetteronline.at )

Wetter aktuell Schwerin

Aktuelles Wetter: Schwerin (68m)

6-stündlich | Neueste Meldungen
Ortszeit Temperatur Wetter
Di, 12.11. 13:00 7.5° C wolkenlos
Di, 12.11. 7:00 3.3° C bedeckt
Di, 12.11. 1:00 2.2° C bewölkt
Mo, 11.11. 19:00 2.5° C bewölkt
Mo, 11.11. 13:00 1.4° C bedeckt
Mo, 11.11. 7:00 -0.9° C wolkig
Mo, 11.11. 1:00 1.1° C fast wolkenlos
So, 10.11. 19:00 3.7° C wolkenlos
Ortszeit Temperatur Wetter
Di, 12.11. 14:00 7.4° C bewölkt
Di, 12.11. 13:50 7.4° C bewölkt
Di, 12.11. 13:40 7.8° C bewölkt
Di, 12.11. 13:30 7.8° C leicht bewölkt
Di, 12.11. 13:20 7.8° C leicht bewölkt
Di, 12.11. 13:10 7.6° C fast wolkenlos
Di, 12.11. 13:00 7.5° C wolkenlos
Di, 12.11. 12:30 6.9° C fast wolkenlos
Di, 12.11. 12:00 6.8° C wolkenlos
Di, 12.11. 11:30 6.2° C wolkenlos
Di, 12.11. 11:00 5.7° C wolkenlos
Di, 12.11. 10:30 5.3° C wolkenlos
Ortszeit Relative Feuchte Sichtweite
Di, 12.11. 13:00 67% 30 km
Di, 12.11. 7:00 84% 17 km
Di, 12.11. 1:00 88% 14 km
Mo, 11.11. 19:00 90% 12 km
Mo, 11.11. 13:00 96% 2.8 km
Mo, 11.11. 7:00 96% 5.0 km
Mo, 11.11. 1:00 96% 4.3 km
So, 10.11. 19:00 92% 10 km
Ortszeit Relative Feuchte Sichtweite
Di, 12.11. 14:00 67% 55 km
Di, 12.11. 13:50 67% -
Di, 12.11. 13:40 66% -
Di, 12.11. 13:30 65% 45 km
Di, 12.11. 13:20 65% -
Di, 12.11. 13:10 66% -
Di, 12.11. 13:00 67% 30 km
Di, 12.11. 12:30 68% 40 km
Di, 12.11. 12:00 70% 45 km
Di, 12.11. 11:30 72% 40 km
Di, 12.11. 11:00 73% 35 km
Di, 12.11. 10:30 75% 30 km
Ortszeit Niederschlagsmenge Niederschlagsart
Di, 12.11. 13:00 0.0 l/m2 in 6 Std. -
Di, 12.11. 7:00 0.1 l/m2 in 12 Std. Regen
Di, 12.11. 1:00 0.0 l/m2 in 6 Std. -
Mo, 11.11. 19:00 0.0 l/m2 in 12 Std. -
Mo, 11.11. 13:00 0.0 l/m2 in 6 Std. -
Mo, 11.11. 7:00 0.0 l/m2 in 12 Std. -
Mo, 11.11. 1:00 0.0 l/m2 in 6 Std. -
So, 10.11. 19:00 0.0 l/m2 in 12 Std. -
Ortszeit Niederschlagsmenge Niederschlagsart
Di, 12.11. 14:00 0.0 l/m2 in 1 Std. -
Di, 12.11. 13:50 keine Meldung -
Di, 12.11. 13:40 keine Meldung -
Di, 12.11. 13:30 0.0 l/m2 in 1 Std. -
Di, 12.11. 13:20 keine Meldung -
Di, 12.11. 13:10 keine Meldung -
Di, 12.11. 13:00 0.0 l/m2 in 1 Std. -
Di, 12.11. 12:30 0.0 l/m2 in 1 Std. -
Di, 12.11. 12:00 0.0 l/m2 in 1 Std. -
Di, 12.11. 11:30 0.0 l/m2 in 1 Std. -
Di, 12.11. 11:00 0.0 l/m2 in 1 Std. -
Di, 12.11. 10:30 0.0 l/m2 in 1 Std. -
Ortszeit Stärke Spitze Richtung
km/h Bft. km/h Grad Sektor
Di, 12.11. 13:00 18 3 40 210° SW
Di, 12.11. 7:00 11 2 25 180° S
Di, 12.11. 1:00 9 2 33 160° S
Mo, 11.11. 19:00 11 2 29 140° SO
Mo, 11.11. 13:00 9 2 24 160° S
Mo, 11.11. 7:00 4 1 22 170° S
Mo, 11.11. 1:00 11 2 22 190° S
So, 10.11. 19:00 7 2 14 190° S
Ortszeit Stärke Spitze Richtung
km/h Bft. km/h Grad Sektor
Di, 12.11. 14:00 20 4 43 210° SW
Di, 12.11. 13:50 20 4 - 210° SW
Di, 12.11. 13:40 14 3 - 210° SW
Di, 12.11. 13:30 20 4 35 200° S
Di, 12.11. 13:20 20 4 - 200° S
Di, 12.11. 13:10 20 4 - 210° SW
Di, 12.11. 13:00 18 3 40 210° SW
Di, 12.11. 12:30 25 4 40 200° S
Di, 12.11. 12:00 14 3 36 200° S
Di, 12.11. 11:30 18 3 36 200° S
Di, 12.11. 11:00 25 4 40 200° S
Di, 12.11. 10:30 22 4 36 210° SW
Ortszeit Untergrenze Bedeckung Gattung
total tief tief mittel hoch
Di, 12.11. 13:00 - 0/8 0/8 - - -
Di, 12.11. 7:00 630 m 8/8 8/8 - - -
Di, 12.11. 1:00 900 m 8/8 7/8 - - -
Mo, 11.11. 19:00 210 m 7/8 7/8 - - -
Mo, 11.11. 13:00 60 m 8/8 8/8 - - -
Mo, 11.11. 7:00 60 m 5/8 5/8 - - -
Mo, 11.11. 1:00 <30 m 0/8 0/8 - - -
So, 10.11. 19:00 - 0/8 0/8 - - -
Ortszeit Bedeckungsgrad in Achtel und Wolkenuntergrenze
Di, 12.11. 14:00 7(840m)
Di, 12.11. 13:50 7(840m)
Di, 12.11. 13:40 7(840m)
Di, 12.11. 13:30 4(810m)
Di, 12.11. 13:20 4(810m)
Di, 12.11. 13:10 1(750m)
Di, 12.11. 13:00 keine Wolken
Di, 12.11. 12:30 1(660m)
Di, 12.11. 12:00 keine Wolken
Di, 12.11. 11:30 keine Wolken
Di, 12.11. 11:00 keine Wolken
Di, 12.11. 10:30 keine Wolken
Ortszeit Luftdruck NN (hPa) Tendenz (hPa in 3 Std.)
Di, 12.11. 13:00 1003 - 0,6
Di, 12.11. 7:00 1003 + 0,1
Di, 12.11. 1:00 1004 - 0,6
Mo, 11.11. 19:00 1006 - 1,3
Mo, 11.11. 13:00 1010 - 1,5
Mo, 11.11. 7:00 1013 - 1,3
Mo, 11.11. 1:00 1014 - 1,0
So, 10.11. 19:00 1015 + 0,8
Ortszeit Luftdruck NN (hPa) Tendenz (hPa in 3 Std.)
Di, 12.11. 14:00 1003 - 0,7
Di, 12.11. 13:50 1003 keine Meldung
Di, 12.11. 13:40 1003 keine Meldung
Di, 12.11. 13:30 1003 - 0,4
Di, 12.11. 13:20 1003 keine Meldung
Di, 12.11. 13:10 1003 keine Meldung
Di, 12.11. 13:00 1003 - 0,6
Di, 12.11. 12:30 1003 - 0,5
Di, 12.11. 12:00 1003 - 0,1
Di, 12.11. 11:30 1004 + 0,2
Di, 12.11. 11:00 1004 + 0,3
Di, 12.11. 10:30 1004 + 0,3
Ortszeit Schneehöhe (cm)
Di, 12.11. 13:00 0
Di, 12.11. 7:00 0
Di, 12.11. 1:00 0
Mo, 11.11. 19:00 0
Mo, 11.11. 13:00 0
Mo, 11.11. 7:00 0
Mo, 11.11. 1:00 0
So, 10.11. 19:00 0
Ortszeit Schneehöhe (cm)
Di, 12.11. 14:00 0
Di, 12.11. 13:50 0
Di, 12.11. 13:40 0
Di, 12.11. 13:30 0
Di, 12.11. 13:20 0
Di, 12.11. 13:10 0
Di, 12.11. 13:00 0
Di, 12.11. 12:30 0
Di, 12.11. 12:00 0
Di, 12.11. 11:30 0
Di, 12.11. 11:00 0
Di, 12.11. 10:30 0
Link zu dieser Seite / Seite empfehlen

Das Wetter in ...